Cibolo, TX

11:45 AM CDT on September 30, 2014 (GMT -0500)
County Line Road Area | Change Station
CLOSE
Current Station
Personal Weather Station
Location: New Braunfels, TX
Elevation: 715 ft
Nearby Weather Stations

Elev 715 ft 29.67 °N, 98.12 °W | Updated 0 second ago

Partly Cloudy
Partly Cloudy
84.0 °F
Feels Like 89 °F
N
2.3
Wind Variable Wind from WSW
Gusts 2.3 mph

Today
High -- | Low -- °F
--% Chance of Precip.
Yesterday
High -- | Low -- °F
Precip. -- in
7:25 AM 7:19 PM
Waxing Crescent, 38% visible
Pressure 29.89 in
Visibility 10.0 miles
Clouds Scattered Clouds 2400 ft
Scattered Clouds 3000 ft
Heat Index 89 °F
Dew Point 71 °F
Humidity 65%
Rainfall 0.00 in
Snow Depth Not available.
UV 5 out of 12
Pollen 8.60 out of 12
Ozone Good
PM2.5 Moderate
Flu Activity Not available.
METAR KRND 301558Z VRB03KT 10SM SCT024 SCT030 27/21 A2991 RMK AO2A SLP121 T02740205

More Conditions Fewer Conditions

Pressure 29.89 in
Visibility 10.0 miles
Clouds Scattered Clouds 2400 ft
Scattered Clouds 3000 ft
Heat Index 89 °F
Dew Point 71 °F
Humidity 65%
Rainfall 0.00 in
Snow Depth Not available.
UV 5 out of 12
Pollen 8.60 out of 12
Ozone Good
PM2.5 Moderate
Flu Activity Not available.
METAR KRND 301558Z VRB03KT 10SM SCT024 SCT030 27/21 A2991 RMK AO2A SLP121 T02740205

More Conditions Fewer Conditions

10-Day Weather Forecast

Almanac

Astronomy

Sep. 30, 2014 Rise Set
Actual Time 7:25 AM CDT 7:19 PM CDT
Civil Twilight 7:01 AM CDT 7:43 PM CDT
Nautical Twilight 6:34 AM CDT 8:10 PM CDT
Astronomical Twilight 6:06 AM CDT 8:38 PM CDT
Moon 1:15 PM CDT No Moon Set
Length of Visible Light 12h 41m
Length of Day
11h 53m
Tomorrow will be 1m 47s shorter.
Waxing Crescent, 38% of the Moon is Illuminated
Today
Waxing Crescent
Oct 1
First Quarter
Oct 8
Full
Oct 15
Last Quarter
Oct 23
New

Today's Extremes

State Highs State Lows

Community

WunderPhotos

Upload Photos

1,757,682 photos uploaded!

Nearby

Air Quality

  Air Quality AQ Index Pollutant
Yesterday Good
OZONE
Yesterday Good
PM2.5
Current Moderate
PM2.5
Current Good
OZONE
Tuesday Moderate
OZONE
Tuesday Good
PM10
Wednesday Good
OZONE
Wednesday Good
PM10
Thursday Good
OZONE
Thursday Good
PM10
Friday Good
OZONE
Friday Good
PM10

Snow Depth

Station Depth Elevation
No new snow has been reported.

Earthquake Activity

City Distance Mag. Time & Date
No recent earthquake activity has been reported nearby.
Minimum magnitude displayed is 2.5.

Coastal Water Temperatures

Place Temperature
No Stations Reporting

Nearby Weather Stations